Time;durP1;ratioP1;P1;durP2;ratioP2;P2;SDS_P1;SDS_P2;PMS_P1;PMS_P2;Temp;Humidity;BMP_temperature;BMP_pressure;BME280_temperature;BME280_humidity;BME280_pressure;Samples;Min_cycle;Max_cycle;Signal;HPM_P1;HPM_P2
2022/02/05 00:02:37;;;;;;;;;;;;;;;18.35;56.55;101056.25;4985012;28;1631;-31
2022/02/05 00:05:05;;;;;;;;;;;;;;;18.42;56.87;101060.09;5013018;28;1561;-31
2022/02/05 00:07:35;;;;;;;;;;;;;;;18.45;56.41;101049.16;5010354;28;1713;-31
2022/02/05 00:10:22;;;;;;;;;;;;;;;18.47;56.17;101050.72;5012839;28;1906;-31
2022/02/05 00:13:05;;;;;;;;;;;;;;;18.48;56.40;101048.88;5012871;28;1650;-31
2022/02/05 00:15:41;;;;;;;;;;;;;;;18.47;56.29;101052.56;5011010;28;1441;-31
2022/02/05 00:40:09;;;;;;;;;;;;;;;18.40;56.83;101043.31;5012821;28;1543;-31
2022/02/05 00:42:41;;;;;;;;;;;;;;;18.31;56.54;101046.75;5012852;28;1490;-31
2022/02/05 00:45:09;;;;;;;;;;;;;;;18.31;56.46;101049.44;5013258;28;1611;-31
2022/02/05 00:47:38;;;;;;;;;;;;;;;18.32;56.39;101056.47;5014159;28;1502;-33
2022/02/05 00:50:09;;;;;;;;;;;;;;;18.29;56.39;101044.19;5011983;28;1978;-32
2022/02/05 00:52:35;;;;;;;;;;;;;;;18.43;55.99;101037.72;5012230;28;1665;-32
2022/02/05 00:55:08;;;;;;;;;;;;;;;18.48;56.10;101036.38;5012318;28;1511;-32
2022/02/05 00:57:46;;;;;;;;;;;;;;;18.30;56.35;101027.13;5005288;28;1806;-31
2022/02/05 01:00:16;;;;;;;;;;;;;;;18.27;56.65;101006.00;5004483;28;1453;-31
2022/02/05 01:02:42;;;;;;;;;;;;;;;18.27;56.96;101012.19;5006312;28;1417;-32
2022/02/05 01:05:09;;;;;;;;;;;;;;;18.30;56.96;101029.81;5006729;28;2015;-31
2022/02/05 01:07:36;;;;;;;;;;;;;;;18.26;56.89;101014.97;5007178;28;1809;-31
2022/02/05 01:10:03;;;;;;;;;;;;;;;18.28;56.56;101019.25;5011470;28;1907;-31
2022/02/05 01:12:31;;;;;;;;;;;;;;;18.27;56.94;101032.75;5009745;28;1677;-31
2022/02/05 01:15:01;;;;;;;;;;;;;;;18.28;56.79;101027.28;5010757;28;1847;-36
2022/02/05 01:17:33;;;;;;;;;;;;;;;18.25;56.93;101022.16;5013045;28;1567;-31
2022/02/05 01:20:45;;;;;;;;;;;;;;;18.26;56.41;101012.31;5002700;28;1767;-31
2022/02/05 01:23:15;;;;;;;;;;;;;;;18.27;56.87;101022.91;5007005;28;1776;-31
2022/02/05 01:25:47;;;;;;;;;;;;;;;18.27;56.21;101027.41;5001886;28;1972;-31
2022/02/05 01:28:17;;;;;;;;;;;;;;;18.27;56.64;101022.91;5005852;28;2027;-31
2022/02/05 01:30:49;;;;;;;;;;;;;;;18.24;56.56;101023.16;5006612;28;1925;-31
2022/02/05 01:33:39;;;;;;;;;;;;;;;18.21;56.66;101020.72;5006421;28;1603;-31
2022/02/05 01:36:23;;;;;;;;;;;;;;;18.21;56.31;101034.09;5009926;28;1725;-31
2022/02/05 01:53:09;;;;;;;;;;;;;;;18.15;56.92;101018.53;5123743;27;1499;-36
2022/02/05 01:55:52;;;;;;;;;;;;;;;18.16;56.52;101012.19;5108618;28;1901;-35
2022/02/05 01:58:20;;;;;;;;;;;;;;;18.20;56.67;101016.31;5108124;28;1823;-35
2022/02/05 02:06:25;;;;;;;;;;;;;;;18.24;56.08;101012.44;5105440;28;1819;-36
2022/02/05 02:11:42;;;;;;;;;;;;;;;18.28;56.11;101019.25;5099911;28;1951;-35
2022/02/05 02:19:47;;;;;;;;;;;;;;;18.21;56.59;101001.13;5106647;28;1764;-36
2022/02/05 02:22:20;;;;;;;;;;;;;;;18.19;56.56;101005.75;5095775;28;1926;-36
2022/02/05 02:24:58;;;;;;;;;;;;;;;18.19;56.50;101005.75;5096219;28;1465;-36
2022/02/05 02:27:32;;;;;;;;;;;;;;;18.18;56.46;101002.22;5104109;28;1784;-36
2022/02/05 02:30:04;;;;;;;;;;;;;;;18.24;56.47;101000.88;5099632;28;1801;-36
2022/02/05 02:32:32;;;;;;;;;;;;;;;18.19;56.65;100987.03;5101358;28;1945;-36
2022/02/05 02:35:04;;;;;;;;;;;;;;;18.21;56.39;100996.63;5098955;28;1886;-36
2022/02/05 02:37:36;;;;;;;;;;;;;;;18.17;56.62;100983.63;5095755;28;1682;-36
2022/02/05 02:40:09;;;;;;;;;;;;;;;18.15;56.11;100993.59;5097493;28;1641;-36
2022/02/05 02:42:41;;;;;;;;;;;;;;;18.11;56.32;100992.16;5100297;28;1546;-36
2022/02/05 02:45:08;;;;;;;;;;;;;;;18.12;56.38;101007.22;5107868;28;1802;-36
2022/02/05 02:47:40;;;;;;;;;;;;;;;18.11;56.73;101003.69;5105463;28;1541;-35
2022/02/05 02:50:11;;;;;;;;;;;;;;;18.12;56.13;101012.56;5098629;28;1095;-35
2022/02/05 02:58:19;;;;;;;;;;;;;;;18.04;56.66;100994.44;5104528;28;2512;-35
2022/02/05 03:00:48;;;;;;;;;;;;;;;18.04;56.49;101005.16;5207708;22;3692;-32
2022/02/05 03:03:14;;;;;;;;;;;;;;;18.06;56.47;100992.50;5055814;28;1776;-30
2022/02/05 03:05:43;;;;;;;;;;;;;;;18.03;56.26;101008.81;5042848;28;1002;-31
2022/02/05 03:08:18;;;;;;;;;;;;;;;18.01;56.35;101008.09;5053311;28;1774;-30
2022/02/05 03:10:48;;;;;;;;;;;;;;;17.99;56.65;101002.03;5053189;28;1979;-30
2022/02/05 03:13:17;;;;;;;;;;;;;;;18.01;56.42;100990.22;5045445;28;1352;-30
2022/02/05 03:15:48;;;;;;;;;;;;;;;18.07;56.59;101003.09;5045660;28;1594;-30
2022/02/05 03:18:28;;;;;;;;;;;;;;;18.15;56.21;101007.84;5047807;28;1379;-33
2022/02/05 03:23:38;;;;;;;;;;;;;;;18.25;55.47;100995.41;5049397;28;1805;-33
2022/02/05 03:26:12;;;;;;;;;;;;;;;18.27;55.10;101006.00;5045394;28;1718;-32
2022/02/05 03:28:41;;;;;;;;;;;;;;;18.33;55.25;100985.91;5046173;28;1820;-33
2022/02/05 03:31:10;;;;;;;;;;;;;;;18.39;55.23;100996.09;5045580;28;1986;-32
2022/02/05 03:33:36;;;;;;;;;;;;;;;18.45;54.78;101003.63;5046765;28;1607;-32
2022/02/05 03:36:04;;;;;;;;;;;;;;;18.41;54.78;100999.50;5052055;28;2007;-32
2022/02/05 03:38:30;;;;;;;;;;;;;;;18.46;54.85;100999.97;5055643;28;1982;-32
2022/02/05 03:41:00;;;;;;;;;;;;;;;18.46;54.45;100995.47;5052727;28;1709;-33
2022/02/05 03:43:30;;;;;;;;;;;;;;;18.43;54.49;101000.22;5040256;28;1836;-32
2022/02/05 03:45:57;;;;;;;;;;;;;;;18.38;54.77;101013.13;5053601;28;1864;-32
2022/02/05 03:48:26;;;;;;;;;;;;;;;18.33;53.70;100999.28;5042428;28;1607;-33
2022/02/05 03:50:56;;;;;;;;;;;;;;;18.32;53.95;100997.56;5054201;28;1374;-32
2022/02/05 03:53:30;;;;;;;;;;;;;;;18.30;54.59;100995.00;5044891;28;1717;-33
2022/02/05 03:56:03;;;;;;;;;;;;;;;18.28;54.69;101003.19;5054585;28;1797;-33
2022/02/05 03:58:32;;;;;;;;;;;;;;;18.28;54.78;101002.31;5050705;28;1830;-32
2022/02/05 04:01:00;;;;;;;;;;;;;;;18.23;54.80;100994.66;5053287;28;1674;-32
2022/02/05 04:03:29;;;;;;;;;;;;;;;18.21;54.69;100996.63;5041467;28;1846;-32
2022/02/05 04:05:58;;;;;;;;;;;;;;;18.18;55.63;100996.84;5042537;28;1486;-32
2022/02/05 04:08:29;;;;;;;;;;;;;;;18.20;55.46;100994.06;5051743;28;1957;-32
2022/02/05 04:11:04;;;;;;;;;;;;;;;18.18;55.44;100990.66;5048059;28;1632;-32
2022/02/05 04:16:25;;;;;;;;;;;;;;;18.08;55.14;100995.91;5047637;28;1755;-33
2022/02/05 04:18:53;;;;;;;;;;;;;;;18.11;55.90;100995.69;5045720;28;1888;-32
2022/02/05 04:21:21;;;;;;;;;;;;;;;18.05;55.55;100994.34;5052287;28;1658;-33
2022/02/05 04:23:54;;;;;;;;;;;;;;;18.07;55.44;101010.28;5051600;28;1560;-32
2022/02/05 04:26:24;;;;;;;;;;;;;;;18.04;55.34;100991.78;5047327;28;1813;-33
2022/02/05 04:28:53;;;;;;;;;;;;;;;18.09;55.57;101009.16;5048433;28;1609;-32
2022/02/05 04:31:21;;;;;;;;;;;;;;;18.11;55.69;101017.09;5044558;28;1909;-32
2022/02/05 04:33:48;;;;;;;;;;;;;;;18.08;55.61;101006.63;5042063;28;1520;-33
2022/02/05 04:36:16;;;;;;;;;;;;;;;18.11;55.42;101005.53;5046011;28;1488;-32
2022/02/05 04:38:48;;;;;;;;;;;;;;;18.15;55.39;101002.47;5043973;28;1490;-33
2022/02/05 04:41:20;;;;;;;;;;;;;;;18.14;55.29;101006.13;5046489;28;1400;-33
2022/02/05 04:44:06;;;;;;;;;;;;;;;18.10;55.18;100996.63;5046672;28;1614;-33
2022/02/05 04:49:59;;;;;;;;;;;;;;;18.10;55.42;101018.03;5004509;28;1777;-32
2022/02/05 04:52:45;;;;;;;;;;;;;;;18.07;55.36;101016.47;5042603;28;2189;-33
2022/02/05 04:58:27;;;;;;;;;;;;;;;18.04;55.54;101029.25;5003420;28;1351;-33
2022/02/05 05:01:12;;;;;;;;;;;;;;;18.04;55.58;101026.56;5038544;28;1728;-33
2022/02/05 05:04:03;;;;;;;;;;;;;;;18.00;55.46;101038.50;5044337;28;1496;-32
2022/02/05 05:09:19;;;;;;;;;;;;;;;17.98;55.56;101029.75;5043869;28;2322;-33
2022/02/05 05:19:57;;;;;;;;;;;;;;;17.88;56.00;101049.19;5043149;28;1843;-33
2022/02/05 05:22:25;;;;;;;;;;;;;;;17.88;55.71;101049.19;5044249;28;1381;-33
2022/02/05 05:24:51;;;;;;;;;;;;;;;17.89;55.70;101042.03;5047788;28;1371;-32
2022/02/05 05:27:18;;;;;;;;;;;;;;;17.95;55.50;101032.66;5047091;28;1653;-34
2022/02/05 05:29:44;;;;;;;;;;;;;;;18.01;55.32;101048.25;5040142;28;1614;-33
2022/02/05 05:32:11;;;;;;;;;;;;;;;18.05;54.93;101045.19;5019269;28;11081;-33
2022/02/05 05:34:37;;;;;;;;;;;;;;;18.29;54.75;101047.72;5031844;28;1645;-32
2022/02/05 05:37:05;;;;;;;;;;;;;;;18.83;53.56;101045.19;5030593;28;1553;-32
2022/02/05 05:39:33;;;;;;;;;;;;;;;19.28;52.70;101053.03;5029039;28;1403;-34
2022/02/05 05:41:59;;;;;;;;;;;;;;;19.59;51.34;101043.16;5030587;28;1106;-33
2022/02/05 05:44:54;;;;;;;;;;;;;;;19.74;51.28;101045.56;5021280;28;1708;-33
2022/02/05 05:47:33;;;;;;;;;;;;;;;19.91;51.30;101046.75;5031754;28;1068;-33
2022/02/05 05:50:05;;;;;;;;;;;;;;;19.77;51.54;101040.75;5026015;28;1103;-33
2022/02/05 05:52:33;;;;;;;;;;;;;;;19.82;52.04;101049.25;5031660;28;1902;-33
2022/02/05 05:54:59;;;;;;;;;;;;;;;19.80;50.92;101045.88;5029493;28;1535;-33
2022/02/05 05:57:26;;;;;;;;;;;;;;;19.84;51.20;101075.97;5030803;28;1547;-32
2022/02/05 05:59:52;;;;;;;;;;;;;;;19.92;52.01;101053.84;5029585;28;1527;-32
2022/02/05 06:02:19;;;;;;;;;;;;;;;19.97;51.70;101056.94;5030365;28;1441;-33
2022/02/05 06:04:45;;;;;;;;;;;;;;;20.03;51.33;101064.47;5026843;28;1406;-33
2022/02/05 06:07:12;;;;;;;;;;;;;;;19.94;51.75;101065.28;5030114;28;1562;-34
2022/02/05 06:09:42;;;;;;;;;;;;;;;19.94;52.02;101074.19;5025513;28;1851;-32
2022/02/05 06:12:10;;;;;;;;;;;;;;;19.94;52.19;101059.91;5024006;28;1906;-33
2022/02/05 06:14:37;;;;;;;;;;;;;;;20.02;53.88;101076.19;5022859;28;1380;-34
2022/02/05 06:17:07;;;;;;;;;;;;;;;19.89;53.22;101075.56;5019461;28;1619;-32
2022/02/05 06:19:34;;;;;;;;;;;;;;;19.90;52.19;101088.03;5021613;28;1572;-32
2022/02/05 06:22:00;;;;;;;;;;;;;;;19.84;53.13;101073.28;5017906;28;1911;-32
2022/02/05 06:24:26;;;;;;;;;;;;;;;19.83;53.66;101072.41;5022233;28;1588;-32
2022/02/05 06:26:54;;;;;;;;;;;;;;;19.78;53.35;101057.72;5021964;28;1146;-32
2022/02/05 06:29:21;;;;;;;;;;;;;;;19.73;53.16;101079.56;5023111;28;1789;-32
2022/02/05 06:31:47;;;;;;;;;;;;;;;19.74;52.95;101065.19;5027444;28;1999;-33
2022/02/05 06:34:14;;;;;;;;;;;;;;;19.64;54.20;101064.25;5026783;28;1817;-32
2022/02/05 06:36:40;;;;;;;;;;;;;;;19.58;54.05;101071.00;5029741;28;1724;-33
2022/02/05 06:39:07;;;;;;;;;;;;;;;19.48;54.64;101068.25;5029372;28;1477;-32
2022/02/05 06:41:33;;;;;;;;;;;;;;;19.44;54.62;101072.19;5025751;28;1002;-32
2022/02/05 06:44:01;;;;;;;;;;;;;;;19.44;54.53;101057.94;5022361;28;1606;-32
2022/02/05 06:46:27;;;;;;;;;;;;;;;19.40;54.95;101054.66;5024263;28;2203;-32
2022/02/05 06:48:54;;;;;;;;;;;;;;;19.37;55.29;101046.84;5026277;28;1799;-32
2022/02/05 06:51:20;;;;;;;;;;;;;;;19.38;54.64;101037.84;5025514;28;1765;-32
2022/02/05 06:53:47;;;;;;;;;;;;;;;19.44;55.79;101036.47;5031645;28;1965;-32
2022/02/05 06:56:16;;;;;;;;;;;;;;;19.38;55.34;101050.41;5021660;28;1518;-33
2022/02/05 06:58:42;;;;;;;;;;;;;;;19.44;55.78;101045.34;5033459;28;1719;-33
2022/02/05 07:01:10;;;;;;;;;;;;;;;19.36;56.27;101057.69;5019992;28;1750;-34
2022/02/05 07:03:40;;;;;;;;;;;;;;;19.34;55.79;101054.31;5025924;28;1761;-33
2022/02/05 07:06:07;;;;;;;;;;;;;;;19.22;55.59;101057.06;5019032;28;1556;-32
2022/02/05 07:08:40;;;;;;;;;;;;;;;19.25;54.89;101062.16;5018365;28;1707;-32
2022/02/05 07:11:09;;;;;;;;;;;;;;;19.23;54.52;101068.63;5035943;28;1007;-32
2022/02/05 07:13:40;;;;;;;;;;;;;;;19.30;54.76;101079.69;5027747;28;1910;-32
2022/02/05 07:16:14;;;;;;;;;;;;;;;19.38;54.37;101056.63;5032848;28;1891;-33
2022/02/05 07:18:56;;;;;;;;;;;;;;;19.39;55.29;101063.66;5025447;28;1728;-33
2022/02/05 07:21:55;;;;;;;;;;;;;;;19.44;55.78;101072.19;5022962;28;1984;-33
2022/02/05 07:24:33;;;;;;;;;;;;;;;19.42;55.01;101063.41;5033196;28;1817;-33
2022/02/05 07:29:44;;;;;;;;;;;;;;;19.37;56.20;101076.34;5021430;28;1506;-32
2022/02/05 07:32:14;;;;;;;;;;;;;;;19.24;56.37;101065.00;5034098;28;1910;-33
2022/02/05 07:34:44;;;;;;;;;;;;;;;19.36;56.15;101074.66;5025421;28;1901;-32
2022/02/05 07:37:15;;;;;;;;;;;;;;;19.29;55.09;101073.47;5026497;28;1800;-33
2022/02/05 07:39:54;;;;;;;;;;;;;;;19.35;56.04;101089.03;5023170;28;1685;-33
2022/02/05 07:42:20;;;;;;;;;;;;;;;19.30;55.15;101077.88;5034128;28;1645;-33
2022/02/05 07:44:48;;;;;;;;;;;;;;;19.24;55.51;101076.56;5026122;28;1345;-32
2022/02/05 07:47:16;;;;;;;;;;;;;;;19.24;55.82;101075.72;5027938;28;1837;-33
2022/02/05 07:49:44;;;;;;;;;;;;;;;19.15;54.91;101065.75;5027087;28;1825;-33
2022/02/05 07:52:11;;;;;;;;;;;;;;;19.17;55.66;101071.84;5026986;28;1910;-33
2022/02/05 07:54:38;;;;;;;;;;;;;;;19.22;55.08;101072.31;5024953;28;1680;-33
2022/02/05 07:57:07;;;;;;;;;;;;;;;19.19;55.78;101073.41;5035235;28;1566;-33
2022/02/05 07:59:33;;;;;;;;;;;;;;;19.15;55.65;101060.38;5023989;28;1687;-33
2022/02/05 08:01:59;;;;;;;;;;;;;;;19.29;54.90;101070.78;5023666;28;1596;-34
2022/02/05 08:04:27;;;;;;;;;;;;;;;19.38;53.91;101067.34;5024596;28;1795;-33
2022/02/05 08:07:01;;;;;;;;;;;;;;;19.32;54.64;101062.50;5020641;28;2318;-33
2022/02/05 08:09:41;;;;;;;;;;;;;;;19.30;54.63;101060.91;5025029;28;1979;-33
2022/02/05 08:12:11;;;;;;;;;;;;;;;19.34;54.50;101063.22;5015340;28;1131;-33
2022/02/05 08:14:43;;;;;;;;;;;;;;;19.36;54.49;101052.34;5024390;28;1142;-33
2022/02/05 08:17:18;;;;;;;;;;;;;;;19.34;53.55;101059.66;5031292;28;1822;-33
2022/02/05 08:19:47;;;;;;;;;;;;;;;19.38;54.85;101061.13;5030718;28;2044;-33
2022/02/05 08:22:18;;;;;;;;;;;;;;;19.34;54.08;101063.22;5026654;28;1731;-33
2022/02/05 08:24:48;;;;;;;;;;;;;;;19.36;54.88;101058.56;5028099;28;1787;-33
2022/02/05 08:27:40;;;;;;;;;;;;;;;19.46;54.58;101051.44;5025483;28;1557;-33
2022/02/05 08:30:10;;;;;;;;;;;;;;;19.50;53.69;101059.19;5021334;28;1643;-33
2022/02/05 08:32:37;;;;;;;;;;;;;;;19.40;53.90;101060.00;5033058;28;1898;-33
2022/02/05 08:35:06;;;;;;;;;;;;;;;19.44;54.11;101055.25;5028031;28;1093;-32
2022/02/05 08:37:45;;;;;;;;;;;;;;;19.51;54.69;101048.34;5022901;28;1848;-33
2022/02/05 08:40:12;;;;;;;;;;;;;;;19.67;56.49;101058.59;5026029;28;1757;-32
2022/02/05 08:42:38;;;;;;;;;;;;;;;19.61;54.48;101056.47;5015820;28;1755;-30
2022/02/05 08:45:09;;;;;;;;;;;;;;;19.62;56.63;101048.28;5032672;28;1403;-30
2022/02/05 08:47:36;;;;;;;;;;;;;;;19.58;54.70;101044.16;5023437;28;1742;-30
2022/02/05 08:50:02;;;;;;;;;;;;;;;19.46;56.85;101061.31;5025786;28;1093;-30
2022/02/05 08:52:29;;;;;;;;;;;;;;;19.38;57.00;101051.25;5025570;28;1951;-30
2022/02/05 08:54:58;;;;;;;;;;;;;;;19.40;56.29;101045.75;5019693;28;1668;-30
2022/02/05 08:57:25;;;;;;;;;;;;;;;19.34;56.25;101041.78;5015146;28;1722;-30
2022/02/05 08:59:56;;;;;;;;;;;;;;;19.45;57.59;101046.19;5022871;28;1752;-30
2022/02/05 09:02:29;;;;;;;;;;;;;;;19.59;57.32;101058.44;5024578;28;1465;-30
2022/02/05 09:05:05;;;;;;;;;;;;;;;19.45;57.20;101047.03;5025919;28;1720;-30
2022/02/05 09:07:32;;;;;;;;;;;;;;;19.36;56.55;101042.47;5025708;28;1925;-31
2022/02/05 09:10:10;;;;;;;;;;;;;;;19.33;57.20;101050.78;5019686;28;1763;-32
2022/02/05 09:13:08;;;;;;;;;;;;;;;19.21;56.03;101051.81;5032365;28;2008;-30
2022/02/05 09:15:35;;;;;;;;;;;;;;;19.16;56.49;101062.06;5025571;28;1629;-33
2022/02/05 09:18:02;;;;;;;;;;;;;;;19.11;55.39;101038.34;5023563;28;1449;-33
2022/02/05 09:20:28;;;;;;;;;;;;;;;19.06;56.65;101046.78;5025110;28;1523;-33
2022/02/05 09:22:56;;;;;;;;;;;;;;;19.13;55.39;101031.03;5022841;28;1646;-33
2022/02/05 09:25:24;;;;;;;;;;;;;;;19.24;55.76;101051.59;5027032;28;1827;-33
2022/02/05 09:27:51;;;;;;;;;;;;;;;19.15;55.31;101047.00;5018450;28;1650;-33
2022/02/05 09:30:28;;;;;;;;;;;;;;;19.02;55.01;101048.03;5022601;28;1961;-33
2022/02/05 09:32:54;;;;;;;;;;;;;;;19.01;54.73;101043.63;5031590;28;1965;-33
2022/02/05 09:35:21;;;;;;;;;;;;;;;19.08;53.86;101038.63;5024915;28;1734;-33
2022/02/05 09:37:48;;;;;;;;;;;;;;;19.16;54.18;101027.22;5022849;28;1092;-33
2022/02/05 09:40:15;;;;;;;;;;;;;;;19.16;53.93;101009.34;5021550;28;1812;-33
2022/02/05 09:42:46;;;;;;;;;;;;;;;19.32;55.37;101024.97;5031864;28;1932;-33
2022/02/05 09:45:13;;;;;;;;;;;;;;;19.43;54.24;101002.56;5023275;28;1421;-33
2022/02/05 09:47:39;;;;;;;;;;;;;;;19.67;54.55;100991.53;5023069;28;1571;-33
2022/02/05 09:50:06;;;;;;;;;;;;;;;19.70;54.96;101006.53;5024767;28;1054;-33
2022/02/05 09:52:33;;;;;;;;;;;;;;;19.78;55.31;100991.47;5021131;28;1690;-33
2022/02/05 09:54:59;;;;;;;;;;;;;;;19.78;54.92;100983.44;5026821;28;1982;-34
2022/02/05 09:57:26;;;;;;;;;;;;;;;20.00;54.88;100990.44;5014310;28;1940;-32
2022/02/05 09:59:57;;;;;;;;;;;;;;;20.14;55.75;100983.81;5022357;28;1804;-34
2022/02/05 10:02:24;;;;;;;;;;;;;;;20.13;55.88;100971.38;5029704;28;1768;-33
2022/02/05 10:05:01;;;;;;;;;;;;;;;20.04;56.03;100956.94;5023203;28;1594;-33
2022/02/05 10:07:28;;;;;;;;;;;;;;;20.03;54.19;100982.13;5026449;28;1882;-32
2022/02/05 10:09:55;;;;;;;;;;;;;;;20.11;54.16;100962.59;5024017;28;1673;-32
2022/02/05 10:12:22;;;;;;;;;;;;;;;20.04;54.47;100950.75;5031266;28;1761;-32
2022/02/05 10:14:51;;;;;;;;;;;;;;;19.97;54.70;100944.22;5032401;28;1906;-32
2022/02/05 10:17:19;;;;;;;;;;;;;;;19.90;56.28;100951.13;5031260;28;1740;-32
2022/02/05 10:19:46;;;;;;;;;;;;;;;19.88;55.53;100966.53;5034224;28;1799;-32
2022/02/05 10:22:13;;;;;;;;;;;;;;;19.85;55.28;100935.44;5020949;28;1797;-32
2022/02/05 10:24:48;;;;;;;;;;;;;;;19.88;55.78;100950.44;5031551;28;1944;-33
2022/02/05 10:27:25;;;;;;;;;;;;;;;19.92;56.01;100949.16;5029544;28;1831;-33
2022/02/05 10:30:03;;;;;;;;;;;;;;;19.91;55.26;100944.78;5025140;28;1643;-34
2022/02/05 10:32:31;;;;;;;;;;;;;;;19.68;53.99;100943.13;5028482;28;1757;-34
2022/02/05 10:35:06;;;;;;;;;;;;;;;19.48;52.18;100939.50;5027213;28;1983;-33
2022/02/05 10:37:41;;;;;;;;;;;;;;;19.38;52.25;100927.88;5025640;28;1756;-33
2022/02/05 10:40:12;;;;;;;;;;;;;;;19.28;51.43;100927.00;5025670;28;1890;-32
2022/02/05 10:43:02;;;;;;;;;;;;;;;19.16;51.05;100933.41;5034982;28;1864;-33
2022/02/05 10:45:31;;;;;;;;;;;;;;;19.10;49.48;100932.13;5027680;28;1533;-33
2022/02/05 10:47:59;;;;;;;;;;;;;;;19.03;49.31;100926.41;5024988;28;1466;-32
2022/02/05 10:50:27;;;;;;;;;;;;;;;19.06;47.52;100934.22;5025781;28;1609;-33
2022/02/05 10:52:57;;;;;;;;;;;;;;;19.01;47.17;100914.97;5025424;28;1479;-33
2022/02/05 10:55:39;;;;;;;;;;;;;;;18.99;47.48;100916.94;5024641;28;1903;-33
2022/02/05 10:58:23;;;;;;;;;;;;;;;18.90;46.26;100906.16;5031455;28;2010;-33
2022/02/05 11:06:19;;;;;;;;;;;;;;;18.82;44.63;100882.69;5026324;28;1670;-33
2022/02/05 11:08:46;;;;;;;;;;;;;;;18.96;44.40;100895.78;5023349;28;1785;-33
2022/02/05 11:14:05;;;;;;;;;;;;;;;18.99;45.30;100874.06;5024753;28;1936;-33
2022/02/05 11:19:17;;;;;;;;;;;;;;;19.02;43.58;100889.03;5028619;28;1660;-33
2022/02/05 11:21:44;;;;;;;;;;;;;;;18.96;43.45;100889.56;5021596;28;1697;-33
2022/02/05 11:24:12;;;;;;;;;;;;;;;19.02;43.44;100905.97;5026481;28;1447;-33
2022/02/05 11:26:39;;;;;;;;;;;;;;;19.01;42.65;100880.16;5027555;28;995;-32
2022/02/05 11:29:06;;;;;;;;;;;;;;;19.04;42.66;100887.94;5029796;28;2013;-37
2022/02/05 11:31:35;;;;;;;;;;;;;;;19.00;42.52;100899.91;5025183;28;1800;-33
2022/02/05 11:34:21;;;;;;;;;;;;;;;19.05;42.97;100900.34;5023336;28;1910;-32
2022/02/05 11:36:59;;;;;;;;;;;;;;;19.15;42.82;100903.06;5028210;28;1879;-33
2022/02/05 11:39:26;;;;;;;;;;;;;;;19.03;42.43;100888.91;5029396;28;1792;-33
2022/02/05 11:41:52;;;;;;;;;;;;;;;18.96;42.38;100890.44;5020911;28;1574;-35
2022/02/05 11:44:21;;;;;;;;;;;;;;;19.19;42.09;100895.63;5023268;28;1626;-34
2022/02/05 11:47:06;;;;;;;;;;;;;;;19.43;42.99;100898.81;5028485;28;1811;-33
2022/02/05 11:49:48;;;;;;;;;;;;;;;19.67;43.57;100908.38;5023515;28;1592;-32
2022/02/05 11:52:35;;;;;;;;;;;;;;;19.54;44.53;100891.69;5025663;28;2286;-33
2022/02/05 11:55:04;;;;;;;;;;;;;;;19.62;45.41;100892.69;5022725;28;1985;-33
2022/02/05 11:57:45;;;;;;;;;;;;;;;19.63;45.31;100882.78;5033967;28;1839;-32
2022/02/05 12:00:18;;;;;;;;;;;;;;;19.59;46.39;100886.75;5024421;28;2309;-32
2022/02/05 12:02:54;;;;;;;;;;;;;;;19.51;47.15;100873.16;5025549;28;1584;-34
2022/02/05 12:05:25;;;;;;;;;;;;;;;19.46;47.87;100884.31;5026056;28;1723;-33
2022/02/05 12:08:02;;;;;;;;;;;;;;;19.45;47.27;100872.72;5025725;28;1518;-33
2022/02/05 12:10:33;;;;;;;;;;;;;;;19.48;48.54;100864.41;5032323;28;1702;-33
2022/02/05 12:13:13;;;;;;;;;;;;;;;19.68;47.34;100854.56;5031865;28;1777;-32
2022/02/05 12:15:40;;;;;;;;;;;;;;;19.56;47.75;100857.53;5021024;28;1974;-33
2022/02/05 12:18:23;;;;;;;;;;;;;;;19.58;47.68;100858.25;5027287;28;1654;-33
2022/02/05 12:21:06;;;;;;;;;;;;;;;19.50;49.28;100858.03;5026570;28;1015;-33
2022/02/05 12:24:21;;;;;;;;;;;;;;;19.46;49.58;100857.50;5028559;28;1430;-33
2022/02/05 12:26:49;;;;;;;;;;;;;;;19.43;49.15;100847.88;5020703;28;1867;-33
2022/02/05 12:29:30;;;;;;;;;;;;;;;19.44;49.90;100846.91;5026029;28;1968;-33
2022/02/05 12:31:57;;;;;;;;;;;;;;;19.44;50.32;100857.63;5026053;28;1930;-32
2022/02/05 12:34:24;;;;;;;;;;;;;;;19.45;49.77;100858.47;5023809;28;1906;-33
2022/02/05 12:36:54;;;;;;;;;;;;;;;19.45;49.86;100853.94;5027478;28;1769;-32
2022/02/05 12:39:23;;;;;;;;;;;;;;;19.47;50.25;100859.16;5024351;28;1677;-33
2022/02/05 12:41:52;;;;;;;;;;;;;;;19.45;50.50;100853.94;5019659;28;1087;-32
2022/02/05 12:44:20;;;;;;;;;;;;;;;19.45;51.22;100853.94;5026128;28;1924;-35
2022/02/05 12:46:50;;;;;;;;;;;;;;;19.58;51.52;100852.88;5019366;28;1922;-32
2022/02/05 12:49:22;;;;;;;;;;;;;;;19.42;51.05;100840.81;5023881;28;2159;-33
2022/02/05 12:51:49;;;;;;;;;;;;;;;19.44;50.94;100857.63;5030399;28;1621;-33
2022/02/05 12:54:18;;;;;;;;;;;;;;;19.39;51.37;100842.91;5024187;28;1906;-33
2022/02/05 12:56:45;;;;;;;;;;;;;;;19.34;51.16;100835.28;5020494;28;1618;-33
2022/02/05 12:59:15;;;;;;;;;;;;;;;19.33;51.53;100833.59;5024769;28;1901;-33
2022/02/05 13:01:50;;;;;;;;;;;;;;;19.34;50.79;100840.66;5023397;28;1887;-33
2022/02/05 13:04:18;;;;;;;;;;;;;;;19.36;51.47;100854.78;5020607;28;1573;-33
2022/02/05 13:06:45;;;;;;;;;;;;;;;19.36;51.84;100849.41;5026337;28;1648;-33
2022/02/05 13:09:20;;;;;;;;;;;;;;;19.37;51.30;100844.88;5023179;28;1782;-33
2022/02/05 13:11:52;;;;;;;;;;;;;;;19.37;52.06;100842.22;5023323;28;1557;-33
2022/02/05 13:14:20;;;;;;;;;;;;;;;19.54;50.47;100813.91;5025378;28;1944;-32
2022/02/05 13:16:47;;;;;;;;;;;;;;;19.61;52.10;100847.22;5019619;28;1747;-32
2022/02/05 13:19:21;;;;;;;;;;;;;;;19.60;51.02;100840.16;5026416;28;1624;-32
2022/02/05 13:27:44;;;;;;;;;;;;;;;19.77;52.20;100835.97;5019978;28;2638;-33
2022/02/05 13:35:57;;;;;;;;;;;;;;;19.77;51.67;100847.56;4986738;28;1914;-30
2022/02/05 13:38:24;;;;;;;;;;;;;;;19.69;52.88;100850.06;5010034;28;1306;-31
2022/02/05 13:40:59;;;;;;;;;;;;;;;19.80;51.45;100841.94;5015718;28;1281;-30
2022/02/05 13:43:39;;;;;;;;;;;;;;;19.71;52.32;100840.06;5017281;28;1687;-32
2022/02/05 13:46:14;;;;;;;;;;;;;;;19.61;51.57;100850.75;5026579;28;1353;-32
2022/02/05 13:48:41;;;;;;;;;;;;;;;19.64;52.36;100850.47;5023656;28;1570;-32
2022/02/05 13:51:16;;;;;;;;;;;;;;;19.62;53.71;100856.97;5017409;28;1675;-32
2022/02/05 13:53:50;;;;;;;;;;;;;;;19.45;52.82;100848.56;5021387;28;1629;-33
2022/02/05 13:56:17;;;;;;;;;;;;;;;19.45;53.56;100864.66;5029982;28;1902;-32
2022/02/05 13:58:43;;;;;;;;;;;;;;;19.32;53.98;100858.72;5025569;28;1914;-32
2022/02/05 14:01:10;;;;;;;;;;;;;;;19.26;53.04;100851.22;5023198;28;1601;-32
2022/02/05 14:03:40;;;;;;;;;;;;;;;19.21;53.34;100850.75;5020666;28;1753;-33
2022/02/05 14:06:07;;;;;;;;;;;;;;;19.22;52.90;100858.66;5023715;28;1760;-32
2022/02/05 14:08:35;;;;;;;;;;;;;;;19.23;53.68;100859.50;5024877;28;1629;-32
2022/02/05 14:11:03;;;;;;;;;;;;;;;19.30;52.95;100874.09;5022628;28;1000;-32
2022/02/05 14:13:29;;;;;;;;;;;;;;;19.37;54.08;100861.81;5017994;28;1837;-32
2022/02/05 14:15:58;;;;;;;;;;;;;;;19.42;53.86;100862.28;5022812;28;1906;-32
2022/02/05 14:18:25;;;;;;;;;;;;;;;19.47;53.56;100857.34;5023935;28;1788;-32
2022/02/05 14:20:53;;;;;;;;;;;;;;;19.54;53.45;100864.88;5022233;28;1130;-32
2022/02/05 14:23:21;;;;;;;;;;;;;;;19.55;52.95;100853.13;5024834;28;1037;-32
2022/02/05 14:25:50;;;;;;;;;;;;;;;19.60;53.51;100861.63;5024850;28;1980;-32
2022/02/05 14:28:26;;;;;;;;;;;;;;;19.55;52.86;100834.34;5016320;28;1960;-32
2022/02/05 14:31:03;;;;;;;;;;;;;;;19.56;52.88;100844.94;5025464;28;1492;-32
2022/02/05 14:33:39;;;;;;;;;;;;;;;19.53;53.36;100847.06;5020164;28;1510;-32
2022/02/05 14:36:20;;;;;;;;;;;;;;;19.46;53.15;100839.56;5021794;28;1983;-32
2022/02/05 14:41:31;;;;;;;;;;;;;;;19.37;54.25;100834.16;5025851;28;711;-33
2022/02/05 14:43:58;;;;;;;;;;;;;;;19.32;54.24;100826.53;5026714;28;1953;-32
2022/02/05 14:46:24;;;;;;;;;;;;;;;19.31;53.31;100823.97;5022227;28;1757;-32
2022/02/05 14:48:51;;;;;;;;;;;;;;;19.32;53.90;100831.91;5022287;28;1601;-32
2022/02/05 14:51:18;;;;;;;;;;;;;;;19.27;54.14;100828.75;5024948;28;1379;-35
2022/02/05 14:53:45;;;;;;;;;;;;;;;19.28;54.43;100846.56;5021260;28;1611;-32
2022/02/05 14:56:11;;;;;;;;;;;;;;;19.22;53.78;100833.69;5024252;28;1910;-32